sensor_id;sensor_type;location;lat;lon;timestamp;P1;durP1;ratioP1;P2;durP2;ratioP2
23720;SDS011;42950;52.134;5.578;2022-07-23T00:00:58;3.30;;;2.80;;
23720;SDS011;42950;52.134;5.578;2022-07-23T00:03:24;2.67;;;2.20;;
23720;SDS011;42950;52.134;5.578;2022-07-23T00:05:50;4.40;;;2.88;;
23720;SDS011;42950;52.134;5.578;2022-07-23T00:08:15;5.65;;;2.40;;
23720;SDS011;42950;52.134;5.578;2022-07-23T00:10:41;4.43;;;2.70;;
23720;SDS011;42950;52.134;5.578;2022-07-23T00:13:06;5.60;;;2.90;;
23720;SDS011;42950;52.134;5.578;2022-07-23T00:15:32;5.32;;;2.78;;
23720;SDS011;42950;52.134;5.578;2022-07-23T00:17:58;4.72;;;2.97;;
23720;SDS011;42950;52.134;5.578;2022-07-23T00:20:23;3.53;;;2.63;;
23720;SDS011;42950;52.134;5.578;2022-07-23T00:22:53;5.63;;;3.47;;
23720;SDS011;42950;52.134;5.578;2022-07-23T00:25:21;5.63;;;3.30;;
23720;SDS011;42950;52.134;5.578;2022-07-23T00:27:47;5.53;;;3.35;;
23720;SDS011;42950;52.134;5.578;2022-07-23T00:30:13;4.20;;;2.90;;
23720;SDS011;42950;52.134;5.578;2022-07-23T00:32:48;4.47;;;3.05;;
23720;SDS011;42950;52.134;5.578;2022-07-23T00:35:19;9.20;;;3.20;;
23720;SDS011;42950;52.134;5.578;2022-07-23T00:37:46;4.00;;;2.83;;
23720;SDS011;42950;52.134;5.578;2022-07-23T00:40:11;4.20;;;3.00;;
23720;SDS011;42950;52.134;5.578;2022-07-23T00:42:37;3.75;;;3.30;;
23720;SDS011;42950;52.134;5.578;2022-07-23T00:45:04;3.10;;;2.80;;
23720;SDS011;42950;52.134;5.578;2022-07-23T00:47:30;4.28;;;3.00;;
23720;SDS011;42950;52.134;5.578;2022-07-23T00:49:55;5.25;;;3.10;;
23720;SDS011;42950;52.134;5.578;2022-07-23T00:52:21;5.18;;;2.85;;
23720;SDS011;42950;52.134;5.578;2022-07-23T00:54:47;6.25;;;3.08;;
23720;SDS011;42950;52.134;5.578;2022-07-23T00:57:13;3.35;;;3.05;;
23720;SDS011;42950;52.134;5.578;2022-07-23T00:59:39;3.50;;;2.80;;
23720;SDS011;42950;52.134;5.578;2022-07-23T01:02:05;6.40;;;3.00;;
23720;SDS011;42950;52.134;5.578;2022-07-23T01:04:31;3.92;;;2.97;;
23720;SDS011;42950;52.134;5.578;2022-07-23T01:06:57;3.17;;;2.88;;
23720;SDS011;42950;52.134;5.578;2022-07-23T01:09:22;4.72;;;2.80;;
23720;SDS011;42950;52.134;5.578;2022-07-23T01:11:48;2.90;;;2.70;;
23720;SDS011;42950;52.134;5.578;2022-07-23T01:14:16;8.10;;;3.17;;
23720;SDS011;42950;52.134;5.578;2022-07-23T01:16:43;3.83;;;3.13;;
23720;SDS011;42950;52.134;5.578;2022-07-23T01:19:11;7.55;;;3.15;;
23720;SDS011;42950;52.134;5.578;2022-07-23T01:21:37;3.22;;;2.92;;
23720;SDS011;42950;52.134;5.578;2022-07-23T01:24:05;3.08;;;2.78;;
23720;SDS011;42950;52.134;5.578;2022-07-23T01:26:31;7.00;;;3.38;;
23720;SDS011;42950;52.134;5.578;2022-07-23T01:28:57;3.78;;;3.33;;
23720;SDS011;42950;52.134;5.578;2022-07-23T01:31:22;5.80;;;3.40;;
23720;SDS011;42950;52.134;5.578;2022-07-23T01:33:49;5.30;;;3.25;;
23720;SDS011;42950;52.134;5.578;2022-07-23T01:36:14;3.42;;;2.97;;
23720;SDS011;42950;52.134;5.578;2022-07-23T01:38:40;4.32;;;3.35;;
23720;SDS011;42950;52.134;5.578;2022-07-23T01:41:05;5.55;;;3.50;;
23720;SDS011;42950;52.134;5.578;2022-07-23T01:43:31;3.55;;;3.25;;
23720;SDS011;42950;52.134;5.578;2022-07-23T01:45:56;3.95;;;3.40;;
23720;SDS011;42950;52.134;5.578;2022-07-23T01:48:22;5.28;;;3.80;;
23720;SDS011;42950;52.134;5.578;2022-07-23T01:50:48;5.53;;;3.50;;
23720;SDS011;42950;52.134;5.578;2022-07-23T01:53:14;4.30;;;3.50;;
23720;SDS011;42950;52.134;5.578;2022-07-23T01:55:40;5.97;;;3.92;;
23720;SDS011;42950;52.134;5.578;2022-07-23T01:58:06;6.70;;;4.15;;
23720;SDS011;42950;52.134;5.578;2022-07-23T02:00:31;3.58;;;3.17;;
23720;SDS011;42950;52.134;5.578;2022-07-23T02:02:57;4.05;;;3.63;;
23720;SDS011;42950;52.134;5.578;2022-07-23T02:05:23;5.15;;;3.50;;
23720;SDS011;42950;52.134;5.578;2022-07-23T02:07:49;4.88;;;3.70;;
23720;SDS011;42950;52.134;5.578;2022-07-23T02:10:15;5.45;;;3.70;;
23720;SDS011;42950;52.134;5.578;2022-07-23T02:12:41;3.78;;;3.25;;
23720;SDS011;42950;52.134;5.578;2022-07-23T02:15:06;4.78;;;3.70;;
23720;SDS011;42950;52.134;5.578;2022-07-23T02:17:32;6.60;;;3.83;;
23720;SDS011;42950;52.134;5.578;2022-07-23T02:19:58;6.32;;;3.88;;
23720;SDS011;42950;52.134;5.578;2022-07-23T02:22:23;5.97;;;3.80;;
23720;SDS011;42950;52.134;5.578;2022-07-23T02:24:49;5.70;;;3.70;;
23720;SDS011;42950;52.134;5.578;2022-07-23T02:27:14;4.13;;;3.78;;
23720;SDS011;42950;52.134;5.578;2022-07-23T02:29:40;4.18;;;3.88;;
23720;SDS011;42950;52.134;5.578;2022-07-23T02:32:05;5.22;;;4.07;;
23720;SDS011;42950;52.134;5.578;2022-07-23T02:34:31;8.57;;;4.00;;
23720;SDS011;42950;52.134;5.578;2022-07-23T02:36:56;4.40;;;3.72;;
23720;SDS011;42950;52.134;5.578;2022-07-23T02:39:22;6.43;;;4.38;;
23720;SDS011;42950;52.134;5.578;2022-07-23T02:41:48;5.45;;;4.05;;
23720;SDS011;42950;52.134;5.578;2022-07-23T02:44:13;5.75;;;4.07;;
23720;SDS011;42950;52.134;5.578;2022-07-23T02:46:39;4.90;;;4.07;;
23720;SDS011;42950;52.134;5.578;2022-07-23T02:49:04;4.68;;;4.28;;
23720;SDS011;42950;52.134;5.578;2022-07-23T02:51:30;7.18;;;5.00;;
23720;SDS011;42950;52.134;5.578;2022-07-23T02:53:56;4.82;;;4.32;;
23720;SDS011;42950;52.134;5.578;2022-07-23T02:56:21;6.20;;;4.35;;
23720;SDS011;42950;52.134;5.578;2022-07-23T02:58:47;4.55;;;3.53;;
23720;SDS011;42950;52.134;5.578;2022-07-23T03:01:13;6.38;;;4.65;;
23720;SDS011;42950;52.134;5.578;2022-07-23T03:03:38;7.55;;;4.53;;
23720;SDS011;42950;52.134;5.578;2022-07-23T03:06:04;7.40;;;4.30;;
23720;SDS011;42950;52.134;5.578;2022-07-23T03:08:29;7.13;;;4.55;;
23720;SDS011;42950;52.134;5.578;2022-07-23T03:10:55;6.53;;;4.45;;
23720;SDS011;42950;52.134;5.578;2022-07-23T03:13:21;6.13;;;4.40;;
23720;SDS011;42950;52.134;5.578;2022-07-23T03:15:46;5.75;;;4.35;;
23720;SDS011;42950;52.134;5.578;2022-07-23T03:18:12;5.97;;;4.40;;
23720;SDS011;42950;52.134;5.578;2022-07-23T03:20:37;5.72;;;4.45;;
23720;SDS011;42950;52.134;5.578;2022-07-23T03:23:03;5.13;;;4.60;;
23720;SDS011;42950;52.134;5.578;2022-07-23T03:25:28;5.80;;;4.07;;
23720;SDS011;42950;52.134;5.578;2022-07-23T03:27:54;4.55;;;4.15;;
23720;SDS011;42950;52.134;5.578;2022-07-23T03:30:19;4.70;;;4.28;;
23720;SDS011;42950;52.134;5.578;2022-07-23T03:32:45;5.72;;;3.80;;
23720;SDS011;42950;52.134;5.578;2022-07-23T03:35:11;4.57;;;3.88;;
23720;SDS011;42950;52.134;5.578;2022-07-23T03:37:36;5.35;;;3.92;;
23720;SDS011;42950;52.134;5.578;2022-07-23T03:40:02;4.53;;;3.83;;
23720;SDS011;42950;52.134;5.578;2022-07-23T03:42:28;4.18;;;3.78;;
23720;SDS011;42950;52.134;5.578;2022-07-23T03:44:54;4.10;;;3.65;;
23720;SDS011;42950;52.134;5.578;2022-07-23T03:47:19;5.22;;;4.07;;
23720;SDS011;42950;52.134;5.578;2022-07-23T03:49:46;5.68;;;4.13;;
23720;SDS011;42950;52.134;5.578;2022-07-23T03:52:13;5.18;;;4.57;;
23720;SDS011;42950;52.134;5.578;2022-07-23T03:54:38;7.40;;;4.28;;
23720;SDS011;42950;52.134;5.578;2022-07-23T03:57:04;4.80;;;4.28;;
23720;SDS011;42950;52.134;5.578;2022-07-23T03:59:30;4.72;;;4.32;;
23720;SDS011;42950;52.134;5.578;2022-07-23T04:01:55;6.53;;;4.60;;
23720;SDS011;42950;52.134;5.578;2022-07-23T04:04:21;5.40;;;4.90;;
23720;SDS011;42950;52.134;5.578;2022-07-23T04:06:47;5.13;;;4.68;;
23720;SDS011;42950;52.134;5.578;2022-07-23T04:09:12;7.45;;;5.00;;
23720;SDS011;42950;52.134;5.578;2022-07-23T04:11:38;9.18;;;5.00;;
23720;SDS011;42950;52.134;5.578;2022-07-23T04:14:04;5.22;;;4.60;;
23720;SDS011;42950;52.134;5.578;2022-07-23T04:16:30;5.60;;;5.03;;
23720;SDS011;42950;52.134;5.578;2022-07-23T04:18:58;5.18;;;4.68;;
23720;SDS011;42950;52.134;5.578;2022-07-23T04:21:24;4.75;;;4.32;;
23720;SDS011;42950;52.134;5.578;2022-07-23T04:23:51;8.15;;;4.78;;
23720;SDS011;42950;52.134;5.578;2022-07-23T04:26:17;5.72;;;4.50;;
23720;SDS011;42950;52.134;5.578;2022-07-23T04:28:42;7.40;;;4.82;;
23720;SDS011;42950;52.134;5.578;2022-07-23T04:31:08;5.45;;;4.50;;
23720;SDS011;42950;52.134;5.578;2022-07-23T04:33:33;6.15;;;4.50;;
23720;SDS011;42950;52.134;5.578;2022-07-23T04:35:59;5.00;;;4.60;;
23720;SDS011;42950;52.134;5.578;2022-07-23T04:38:24;5.03;;;4.40;;
23720;SDS011;42950;52.134;5.578;2022-07-23T04:40:50;6.88;;;4.68;;
23720;SDS011;42950;52.134;5.578;2022-07-23T04:43:15;6.38;;;4.78;;
23720;SDS011;42950;52.134;5.578;2022-07-23T04:45:41;5.05;;;4.50;;
23720;SDS011;42950;52.134;5.578;2022-07-23T04:48:07;6.00;;;4.55;;
23720;SDS011;42950;52.134;5.578;2022-07-23T04:50:32;5.55;;;4.97;;
23720;SDS011;42950;52.134;5.578;2022-07-23T04:52:58;5.32;;;4.45;;
23720;SDS011;42950;52.134;5.578;2022-07-23T04:55:23;6.00;;;4.38;;
23720;SDS011;42950;52.134;5.578;2022-07-23T04:57:49;5.22;;;4.75;;
23720;SDS011;42950;52.134;5.578;2022-07-23T05:00:15;5.22;;;4.72;;
23720;SDS011;42950;52.134;5.578;2022-07-23T05:02:41;5.65;;;5.10;;
23720;SDS011;42950;52.134;5.578;2022-07-23T05:05:06;5.07;;;4.55;;
23720;SDS011;42950;52.134;5.578;2022-07-23T05:07:32;8.23;;;5.65;;
23720;SDS011;42950;52.134;5.578;2022-07-23T05:09:57;8.25;;;5.22;;
23720;SDS011;42950;52.134;5.578;2022-07-23T05:12:23;5.70;;;4.90;;
23720;SDS011;42950;52.134;5.578;2022-07-23T05:14:49;7.25;;;6.00;;
23720;SDS011;42950;52.134;5.578;2022-07-23T05:17:14;8.68;;;5.03;;
23720;SDS011;42950;52.134;5.578;2022-07-23T05:19:40;10.18;;;5.45;;
23720;SDS011;42950;52.134;5.578;2022-07-23T05:22:05;6.43;;;5.45;;
23720;SDS011;42950;52.134;5.578;2022-07-23T05:24:31;6.60;;;5.50;;
23720;SDS011;42950;52.134;5.578;2022-07-23T05:26:56;8.60;;;5.13;;
23720;SDS011;42950;52.134;5.578;2022-07-23T05:29:22;7.13;;;5.47;;
23720;SDS011;42950;52.134;5.578;2022-07-23T05:31:47;6.03;;;5.47;;
23720;SDS011;42950;52.134;5.578;2022-07-23T05:34:13;7.05;;;5.32;;
23720;SDS011;42950;52.134;5.578;2022-07-23T05:36:39;6.93;;;5.05;;
23720;SDS011;42950;52.134;5.578;2022-07-23T05:39:04;8.82;;;5.50;;
23720;SDS011;42950;52.134;5.578;2022-07-23T05:41:30;6.40;;;4.97;;
23720;SDS011;42950;52.134;5.578;2022-07-23T05:43:55;6.35;;;5.13;;
23720;SDS011;42950;52.134;5.578;2022-07-23T05:46:21;5.60;;;4.75;;
23720;SDS011;42950;52.134;5.578;2022-07-23T05:48:47;5.82;;;5.07;;
23720;SDS011;42950;52.134;5.578;2022-07-23T05:51:24;6.22;;;5.03;;
23720;SDS011;42950;52.134;5.578;2022-07-23T05:53:50;5.45;;;4.65;;
23720;SDS011;42950;52.134;5.578;2022-07-23T05:56:16;8.85;;;5.10;;
23720;SDS011;42950;52.134;5.578;2022-07-23T05:58:44;4.80;;;4.40;;
23720;SDS011;42950;52.134;5.578;2022-07-23T06:01:10;6.38;;;4.80;;
23720;SDS011;42950;52.134;5.578;2022-07-23T06:03:37;5.97;;;4.53;;
23720;SDS011;42950;52.134;5.578;2022-07-23T06:06:03;4.68;;;4.20;;
23720;SDS011;42950;52.134;5.578;2022-07-23T06:08:29;5.55;;;4.47;;
23720;SDS011;42950;52.134;5.578;2022-07-23T06:10:54;5.30;;;4.30;;
23720;SDS011;42950;52.134;5.578;2022-07-23T06:13:20;4.55;;;3.90;;
23720;SDS011;42950;52.134;5.578;2022-07-23T06:15:46;5.78;;;3.78;;
23720;SDS011;42950;52.134;5.578;2022-07-23T06:18:11;5.90;;;3.47;;
23720;SDS011;42950;52.134;5.578;2022-07-23T06:20:37;6.22;;;3.40;;
23720;SDS011;42950;52.134;5.578;2022-07-23T06:23:03;5.55;;;3.22;;
23720;SDS011;42950;52.134;5.578;2022-07-23T06:25:29;3.90;;;2.65;;
23720;SDS011;42950;52.134;5.578;2022-07-23T06:27:55;4.00;;;2.75;;
23720;SDS011;42950;52.134;5.578;2022-07-23T06:30:21;4.88;;;3.22;;
23720;SDS011;42950;52.134;5.578;2022-07-23T06:32:47;6.55;;;3.78;;
23720;SDS011;42950;52.134;5.578;2022-07-23T06:35:13;4.38;;;3.40;;
23720;SDS011;42950;52.134;5.578;2022-07-23T06:37:39;7.25;;;3.35;;
23720;SDS011;42950;52.134;5.578;2022-07-23T06:40:04;5.50;;;3.30;;
23720;SDS011;42950;52.134;5.578;2022-07-23T06:42:30;5.85;;;3.28;;
23720;SDS011;42950;52.134;5.578;2022-07-23T06:44:56;6.15;;;2.97;;
23720;SDS011;42950;52.134;5.578;2022-07-23T06:47:22;4.20;;;2.92;;
23720;SDS011;42950;52.134;5.578;2022-07-23T06:49:47;5.57;;;3.45;;
23720;SDS011;42950;52.134;5.578;2022-07-23T06:52:13;7.28;;;3.03;;
23720;SDS011;42950;52.134;5.578;2022-07-23T06:54:39;6.75;;;3.65;;
23720;SDS011;42950;52.134;5.578;2022-07-23T06:57:04;5.30;;;3.55;;
23720;SDS011;42950;52.134;5.578;2022-07-23T06:59:30;7.35;;;3.80;;
23720;SDS011;42950;52.134;5.578;2022-07-23T07:01:56;8.52;;;3.35;;
23720;SDS011;42950;52.134;5.578;2022-07-23T07:04:23;7.45;;;3.80;;
23720;SDS011;42950;52.134;5.578;2022-07-23T07:06:48;4.05;;;3.65;;
23720;SDS011;42950;52.134;5.578;2022-07-23T07:09:14;6.63;;;3.45;;
23720;SDS011;42950;52.134;5.578;2022-07-23T07:11:40;3.90;;;3.05;;
23720;SDS011;42950;52.134;5.578;2022-07-23T07:14:05;5.00;;;2.90;;
23720;SDS011;42950;52.134;5.578;2022-07-23T07:16:31;6.05;;;3.40;;
23720;SDS011;42950;52.134;5.578;2022-07-23T07:18:57;2.92;;;1.90;;
23720;SDS011;42950;52.134;5.578;2022-07-23T07:21:23;4.43;;;3.03;;
23720;SDS011;42950;52.134;5.578;2022-07-23T07:23:49;5.10;;;3.00;;
23720;SDS011;42950;52.134;5.578;2022-07-23T07:26:14;3.53;;;2.85;;
23720;SDS011;42950;52.134;5.578;2022-07-23T07:28:40;4.05;;;2.58;;
23720;SDS011;42950;52.134;5.578;2022-07-23T07:31:05;4.55;;;2.55;;
23720;SDS011;42950;52.134;5.578;2022-07-23T07:33:31;4.85;;;3.92;;
23720;SDS011;42950;52.134;5.578;2022-07-23T07:35:57;5.65;;;2.50;;
23720;SDS011;42950;52.134;5.578;2022-07-23T07:38:23;3.22;;;2.78;;
23720;SDS011;42950;52.134;5.578;2022-07-23T07:40:49;3.70;;;2.58;;
23720;SDS011;42950;52.134;5.578;2022-07-23T07:43:14;2.85;;;2.17;;
23720;SDS011;42950;52.134;5.578;2022-07-23T07:45:40;3.40;;;2.05;;
23720;SDS011;42950;52.134;5.578;2022-07-23T07:48:06;4.38;;;2.28;;
23720;SDS011;42950;52.134;5.578;2022-07-23T07:50:31;2.75;;;2.20;;
23720;SDS011;42950;52.134;5.578;2022-07-23T07:52:57;5.85;;;2.72;;
23720;SDS011;42950;52.134;5.578;2022-07-23T07:55:23;4.78;;;2.80;;
23720;SDS011;42950;52.134;5.578;2022-07-23T07:57:48;4.43;;;2.85;;
23720;SDS011;42950;52.134;5.578;2022-07-23T08:00:14;3.78;;;3.40;;
23720;SDS011;42950;52.134;5.578;2022-07-23T08:02:46;5.70;;;3.10;;
23720;SDS011;42950;52.134;5.578;2022-07-23T08:05:20;5.40;;;3.30;;
23720;SDS011;42950;52.134;5.578;2022-07-23T08:07:47;5.43;;;3.58;;
23720;SDS011;42950;52.134;5.578;2022-07-23T08:10:13;3.17;;;2.83;;
23720;SDS011;42950;52.134;5.578;2022-07-23T08:12:39;4.20;;;3.30;;
23720;SDS011;42950;52.134;5.578;2022-07-23T08:15:07;8.52;;;3.30;;
23720;SDS011;42950;52.134;5.578;2022-07-23T08:17:34;4.88;;;3.47;;
23720;SDS011;42950;52.134;5.578;2022-07-23T08:19:59;5.30;;;3.20;;
23720;SDS011;42950;52.134;5.578;2022-07-23T08:22:25;4.22;;;2.90;;
23720;SDS011;42950;52.134;5.578;2022-07-23T08:25:05;5.75;;;2.13;;
23720;SDS011;42950;52.134;5.578;2022-07-23T08:27:31;3.65;;;2.00;;
23720;SDS011;42950;52.134;5.578;2022-07-23T08:29:57;2.80;;;2.17;;
23720;SDS011;42950;52.134;5.578;2022-07-23T08:32:22;8.23;;;2.40;;
23720;SDS011;42950;52.134;5.578;2022-07-23T08:34:48;3.53;;;2.13;;
23720;SDS011;42950;52.134;5.578;2022-07-23T08:37:13;4.68;;;1.80;;
23720;SDS011;42950;52.134;5.578;2022-07-23T08:39:39;4.13;;;1.90;;
23720;SDS011;42950;52.134;5.578;2022-07-23T08:42:05;2.83;;;1.67;;
23720;SDS011;42950;52.134;5.578;2022-07-23T08:44:33;3.28;;;1.60;;
23720;SDS011;42950;52.134;5.578;2022-07-23T08:47:00;4.07;;;1.70;;
23720;SDS011;42950;52.134;5.578;2022-07-23T08:49:26;2.50;;;1.90;;
23720;SDS011;42950;52.134;5.578;2022-07-23T08:51:54;3.47;;;1.70;;
23720;SDS011;42950;52.134;5.578;2022-07-23T08:54:21;3.78;;;1.80;;
23720;SDS011;42950;52.134;5.578;2022-07-23T08:56:48;3.35;;;2.00;;
23720;SDS011;42950;52.134;5.578;2022-07-23T08:59:13;4.28;;;1.73;;
23720;SDS011;42950;52.134;5.578;2022-07-23T09:01:39;3.17;;;1.80;;
23720;SDS011;42950;52.134;5.578;2022-07-23T09:04:05;2.42;;;1.38;;
23720;SDS011;42950;52.134;5.578;2022-07-23T09:06:31;3.40;;;1.70;;
23720;SDS011;42950;52.134;5.578;2022-07-23T09:08:56;2.92;;;1.60;;
23720;SDS011;42950;52.134;5.578;2022-07-23T09:11:22;3.08;;;2.00;;
23720;SDS011;42950;52.134;5.578;2022-07-23T09:13:48;3.13;;;1.58;;
23720;SDS011;42950;52.134;5.578;2022-07-23T09:16:18;5.93;;;1.80;;
23720;SDS011;42950;52.134;5.578;2022-07-23T09:18:49;2.95;;;1.38;;
23720;SDS011;42950;52.134;5.578;2022-07-23T09:21:21;3.17;;;1.60;;
23720;SDS011;42950;52.134;5.578;2022-07-23T09:24:00;1.73;;;1.05;;
23720;SDS011;42950;52.134;5.578;2022-07-23T09:26:38;3.28;;;1.20;;
23720;SDS011;42950;52.134;5.578;2022-07-23T09:29:15;2.00;;;1.20;;
23720;SDS011;42950;52.134;5.578;2022-07-23T09:36:52;3.28;;;1.20;;
23720;SDS011;42950;52.134;5.578;2022-07-23T09:39:30;2.10;;;1.30;;
23720;SDS011;42950;52.134;5.578;2022-07-23T09:42:12;1.52;;;1.02;;
23720;SDS011;42950;52.134;5.578;2022-07-23T09:44:42;3.03;;;1.10;;
23720;SDS011;42950;52.134;5.578;2022-07-23T09:47:22;2.85;;;1.13;;
23720;SDS011;42950;52.134;5.578;2022-07-23T09:52:28;2.28;;;1.48;;
23720;SDS011;42950;52.134;5.578;2022-07-23T09:54:57;1.92;;;1.33;;
23720;SDS011;42950;52.134;5.578;2022-07-23T09:57:25;2.92;;;1.40;;
23720;SDS011;42950;52.134;5.578;2022-07-23T09:59:52;4.15;;;1.20;;
23720;SDS011;42950;52.134;5.578;2022-07-23T10:02:17;2.03;;;1.30;;
23720;SDS011;42950;52.134;5.578;2022-07-23T10:04:44;2.80;;;1.30;;
23720;SDS011;42950;52.134;5.578;2022-07-23T10:07:10;4.32;;;1.20;;
23720;SDS011;42950;52.134;5.578;2022-07-23T10:09:37;3.88;;;1.40;;
23720;SDS011;42950;52.134;5.578;2022-07-23T10:12:08;1.95;;;1.20;;
23720;SDS011;42950;52.134;5.578;2022-07-23T10:14:44;3.85;;;1.02;;
23720;SDS011;42950;52.134;5.578;2022-07-23T10:17:10;2.72;;;1.10;;
23720;SDS011;42950;52.134;5.578;2022-07-23T10:19:36;2.30;;;1.42;;
23720;SDS011;42950;52.134;5.578;2022-07-23T10:22:04;3.78;;;1.40;;
23720;SDS011;42950;52.134;5.578;2022-07-23T10:30:12;3.75;;;1.30;;
23720;SDS011;42950;52.134;5.578;2022-07-23T10:38:35;3.22;;;1.33;;
23720;SDS011;42950;52.134;5.578;2022-07-23T10:41:08;2.63;;;1.27;;
23720;SDS011;42950;52.134;5.578;2022-07-23T10:43:33;1.27;;;0.90;;
23720;SDS011;42950;52.134;5.578;2022-07-23T10:54:43;2.63;;;1.30;;
23720;SDS011;42950;52.134;5.578;2022-07-23T10:57:14;1.88;;;1.20;;
23720;SDS011;42950;52.134;5.578;2022-07-23T11:02:26;1.52;;;1.20;;
23720;SDS011;42950;52.134;5.578;2022-07-23T11:04:54;2.67;;;1.00;;
23720;SDS011;42950;52.134;5.578;2022-07-23T11:07:24;1.60;;;1.10;;
23720;SDS011;42950;52.134;5.578;2022-07-23T11:09:50;4.93;;;1.17;;
23720;SDS011;42950;52.134;5.578;2022-07-23T11:17:25;2.13;;;1.10;;
23720;SDS011;42950;52.134;5.578;2022-07-23T11:22:40;1.42;;;1.00;;
23720;SDS011;42950;52.134;5.578;2022-07-23T11:25:13;4.05;;;1.35;;
23720;SDS011;42950;52.134;5.578;2022-07-23T11:35:37;2.45;;;1.30;;
23720;SDS011;42950;52.134;5.578;2022-07-23T11:38:11;2.40;;;1.33;;
23720;SDS011;42950;52.134;5.578;2022-07-23T11:40:40;1.95;;;1.38;;
23720;SDS011;42950;52.134;5.578;2022-07-23T11:43:07;1.88;;;1.15;;
23720;SDS011;42950;52.134;5.578;2022-07-23T11:50:55;1.52;;;1.05;;
23720;SDS011;42950;52.134;5.578;2022-07-23T11:53:27;4.57;;;1.23;;
23720;SDS011;42950;52.134;5.578;2022-07-23T11:56:02;1.67;;;1.20;;
23720;SDS011;42950;52.134;5.578;2022-07-23T11:58:31;3.35;;;1.20;;
23720;SDS011;42950;52.134;5.578;2022-07-23T12:00:57;6.30;;;1.35;;
23720;SDS011;42950;52.134;5.578;2022-07-23T12:03:23;3.78;;;1.20;;
23720;SDS011;42950;52.134;5.578;2022-07-23T12:05:48;3.47;;;1.60;;
23720;SDS011;42950;52.134;5.578;2022-07-23T12:08:14;2.78;;;1.20;;
23720;SDS011;42950;52.134;5.578;2022-07-23T12:10:41;2.92;;;1.10;;
23720;SDS011;42950;52.134;5.578;2022-07-23T12:15:41;1.55;;;1.35;;
23720;SDS011;42950;52.134;5.578;2022-07-23T12:18:08;3.90;;;1.63;;
23720;SDS011;42950;52.134;5.578;2022-07-23T12:20:39;2.95;;;1.23;;
23720;SDS011;42950;52.134;5.578;2022-07-23T12:23:11;2.03;;;1.23;;
23720;SDS011;42950;52.134;5.578;2022-07-23T12:25:39;1.67;;;1.20;;
23720;SDS011;42950;52.134;5.578;2022-07-23T12:28:11;3.45;;;1.50;;
23720;SDS011;42950;52.134;5.578;2022-07-23T12:30:45;1.77;;;1.42;;
23720;SDS011;42950;52.134;5.578;2022-07-23T12:33:13;2.47;;;1.55;;
23720;SDS011;42950;52.134;5.578;2022-07-23T12:35:56;3.38;;;1.40;;
23720;SDS011;42950;52.134;5.578;2022-07-23T12:38:23;2.35;;;1.35;;
23720;SDS011;42950;52.134;5.578;2022-07-23T12:48:18;2.05;;;1.45;;
23720;SDS011;42950;52.134;5.578;2022-07-23T12:53:27;2.67;;;1.52;;
23720;SDS011;42950;52.134;5.578;2022-07-23T12:56:02;1.58;;;1.35;;
23720;SDS011;42950;52.134;5.578;2022-07-23T12:58:49;2.92;;;1.52;;
23720;SDS011;42950;52.134;5.578;2022-07-23T13:03:53;3.72;;;1.23;;
23720;SDS011;42950;52.134;5.578;2022-07-23T13:06:33;1.65;;;1.40;;
23720;SDS011;42950;52.134;5.578;2022-07-23T13:09:00;7.30;;;1.65;;
23720;SDS011;42950;52.134;5.578;2022-07-23T13:11:26;4.47;;;1.40;;
23720;SDS011;42950;52.134;5.578;2022-07-23T13:13:52;1.42;;;1.23;;
23720;SDS011;42950;52.134;5.578;2022-07-23T13:16:18;3.30;;;1.35;;
23720;SDS011;42950;52.134;5.578;2022-07-23T13:18:44;2.83;;;1.55;;
23720;SDS011;42950;52.134;5.578;2022-07-23T13:21:09;2.10;;;1.30;;
23720;SDS011;42950;52.134;5.578;2022-07-23T13:23:35;2.58;;;1.55;;
23720;SDS011;42950;52.134;5.578;2022-07-23T13:26:02;1.73;;;1.20;;
23720;SDS011;42950;52.134;5.578;2022-07-23T13:28:28;3.70;;;1.20;;
23720;SDS011;42950;52.134;5.578;2022-07-23T13:30:54;2.00;;;1.50;;
23720;SDS011;42950;52.134;5.578;2022-07-23T13:33:21;1.92;;;1.40;;
23720;SDS011;42950;52.134;5.578;2022-07-23T13:35:48;4.10;;;1.65;;
23720;SDS011;42950;52.134;5.578;2022-07-23T13:38:14;2.72;;;1.42;;
23720;SDS011;42950;52.134;5.578;2022-07-23T13:40:41;4.20;;;1.58;;
23720;SDS011;42950;52.134;5.578;2022-07-23T13:43:12;3.63;;;1.40;;
23720;SDS011;42950;52.134;5.578;2022-07-23T13:45:39;3.53;;;1.95;;
23720;SDS011;42950;52.134;5.578;2022-07-23T13:48:07;2.58;;;1.80;;
23720;SDS011;42950;52.134;5.578;2022-07-23T13:50:34;2.65;;;1.80;;
23720;SDS011;42950;52.134;5.578;2022-07-23T13:53:02;2.78;;;1.58;;
23720;SDS011;42950;52.134;5.578;2022-07-23T13:55:30;1.73;;;1.48;;
23720;SDS011;42950;52.134;5.578;2022-07-23T13:57:56;2.53;;;1.40;;
23720;SDS011;42950;52.134;5.578;2022-07-23T14:00:22;2.40;;;1.70;;
23720;SDS011;42950;52.134;5.578;2022-07-23T14:02:47;2.60;;;1.30;;
23720;SDS011;42950;52.134;5.578;2022-07-23T14:05:13;1.30;;;1.20;;
23720;SDS011;42950;52.134;5.578;2022-07-23T14:07:39;1.83;;;1.35;;
23720;SDS011;42950;52.134;5.578;2022-07-23T14:10:06;2.17;;;1.40;;
23720;SDS011;42950;52.134;5.578;2022-07-23T14:12:33;1.25;;;1.08;;
23720;SDS011;42950;52.134;5.578;2022-07-23T14:14:59;3.20;;;1.70;;
23720;SDS011;42950;52.134;5.578;2022-07-23T14:17:25;3.47;;;1.30;;
23720;SDS011;42950;52.134;5.578;2022-07-23T14:19:50;3.45;;;1.20;;
23720;SDS011;42950;52.134;5.578;2022-07-23T14:22:16;2.20;;;1.30;;
23720;SDS011;42950;52.134;5.578;2022-07-23T14:24:42;2.35;;;1.40;;
23720;SDS011;42950;52.134;5.578;2022-07-23T14:27:08;1.88;;;1.25;;
23720;SDS011;42950;52.134;5.578;2022-07-23T14:29:34;3.47;;;1.40;;
23720;SDS011;42950;52.134;5.578;2022-07-23T14:32:00;2.92;;;1.20;;
23720;SDS011;42950;52.134;5.578;2022-07-23T14:34:26;3.25;;;1.45;;
23720;SDS011;42950;52.134;5.578;2022-07-23T14:36:51;4.65;;;1.40;;
23720;SDS011;42950;52.134;5.578;2022-07-23T14:39:17;2.78;;;1.38;;
23720;SDS011;42950;52.134;5.578;2022-07-23T14:41:43;2.05;;;1.50;;
23720;SDS011;42950;52.134;5.578;2022-07-23T14:44:09;2.42;;;1.33;;
23720;SDS011;42950;52.134;5.578;2022-07-23T14:46:35;3.58;;;1.65;;
23720;SDS011;42950;52.134;5.578;2022-07-23T14:49:02;2.65;;;1.77;;
23720;SDS011;42950;52.134;5.578;2022-07-23T14:51:28;2.50;;;1.38;;
23720;SDS011;42950;52.134;5.578;2022-07-23T14:53:53;2.03;;;1.45;;
23720;SDS011;42950;52.134;5.578;2022-07-23T14:56:19;5.53;;;1.90;;
23720;SDS011;42950;52.134;5.578;2022-07-23T14:58:45;2.30;;;1.70;;
23720;SDS011;42950;52.134;5.578;2022-07-23T15:01:10;4.50;;;1.48;;
23720;SDS011;42950;52.134;5.578;2022-07-23T15:03:36;4.25;;;1.92;;
23720;SDS011;42950;52.134;5.578;2022-07-23T15:06:02;5.18;;;1.75;;
23720;SDS011;42950;52.134;5.578;2022-07-23T15:08:29;2.70;;;1.42;;
23720;SDS011;42950;52.134;5.578;2022-07-23T15:10:54;2.05;;;1.27;;
23720;SDS011;42950;52.134;5.578;2022-07-23T15:13:20;2.47;;;1.55;;
23720;SDS011;42950;52.134;5.578;2022-07-23T15:15:45;2.25;;;1.48;;
23720;SDS011;42950;52.134;5.578;2022-07-23T15:18:11;1.85;;;1.42;;
23720;SDS011;42950;52.134;5.578;2022-07-23T15:20:37;2.95;;;1.50;;
23720;SDS011;42950;52.134;5.578;2022-07-23T15:23:03;4.18;;;1.50;;
23720;SDS011;42950;52.134;5.578;2022-07-23T15:25:29;3.10;;;1.35;;
23720;SDS011;42950;52.134;5.578;2022-07-23T15:27:56;2.55;;;1.38;;
23720;SDS011;42950;52.134;5.578;2022-07-23T15:30:23;3.30;;;1.60;;
23720;SDS011;42950;52.134;5.578;2022-07-23T15:32:50;2.90;;;1.90;;
23720;SDS011;42950;52.134;5.578;2022-07-23T15:35:16;2.50;;;1.83;;
23720;SDS011;42950;52.134;5.578;2022-07-23T15:37:41;4.47;;;1.83;;
23720;SDS011;42950;52.134;5.578;2022-07-23T15:40:07;2.78;;;1.73;;
23720;SDS011;42950;52.134;5.578;2022-07-23T15:42:33;3.05;;;1.55;;
23720;SDS011;42950;52.134;5.578;2022-07-23T15:44:59;3.22;;;1.55;;
23720;SDS011;42950;52.134;5.578;2022-07-23T15:47:24;3.08;;;1.33;;
23720;SDS011;42950;52.134;5.578;2022-07-23T15:49:50;1.98;;;1.35;;
23720;SDS011;42950;52.134;5.578;2022-07-23T15:52:15;2.83;;;1.70;;